Time,TemperatureF,DewpointF,PressureIn,WindDirection,WindDirectionDegrees,WindSpeedMPH,WindSpeedGustMPH,Humidity,HourlyPrecipIn,Conditions,Clouds,dailyrainin,SolarRadiationWatts/m^2,SoftwareType,DateUTC
2013-09-14 00:14:00,59.2,55.0,29.43,North,10,1.0,8.0,85,0.01,,,0.39,0,weatherlink.com 1.10,2013-09-14 04:14:00,
2013-09-14 00:29:00,59.1,55.0,29.43,NNW,347,5.0,6.0,85,0.01,,,0.40,0,weatherlink.com 1.10,2013-09-14 04:29:00,
2013-09-14 00:44:00,59.0,55.0,29.43,NNW,331,0.0,5.0,85,0.01,,,0.40,0,weatherlink.com 1.10,2013-09-14 04:44:00,
2013-09-14 00:59:00,58.9,55.0,29.44,NNW,347,2.0,6.0,86,0.01,,,0.40,0,weatherlink.com 1.10,2013-09-14 04:59:00,
2013-09-14 01:14:00,58.6,55.0,29.45,North,5,0.0,5.0,86,0.01,,,0.40,0,weatherlink.com 1.10,2013-09-14 05:14:00,
2013-09-14 01:29:00,58.5,54.0,29.45,North,5,1.0,6.0,86,0.00,,,0.40,0,weatherlink.com 1.10,2013-09-14 05:29:00,
2013-09-14 01:44:00,58.4,54.0,29.45,North,5,0.0,3.0,86,0.00,,,0.40,0,weatherlink.com 1.10,2013-09-14 05:44:00,
2013-09-14 01:59:00,58.2,54.0,29.45,North,5,1.0,2.0,87,0.00,,,0.40,0,weatherlink.com 1.10,2013-09-14 05:59:00,
2013-09-14 02:14:00,57.7,54.0,29.45,North,5,0.0,2.0,87,0.00,,,0.40,0,weatherlink.com 1.10,2013-09-14 06:14:00,
2013-09-14 02:30:00,57.3,54.0,29.46,North,5,0.0,0.0,87,0.01,,,0.41,0,weatherlink.com 1.10,2013-09-14 06:30:00,
2013-09-14 02:45:00,57.0,54.0,29.46,NNW,344,2.0,3.0,88,0.01,,,0.41,0,weatherlink.com 1.10,2013-09-14 06:45:00,
2013-09-14 03:00:00,57.0,54.0,29.46,NNW,343,2.0,4.0,88,0.01,,,0.41,0,weatherlink.com 1.10,2013-09-14 07:00:00,
2013-09-14 03:15:00,57.1,53.0,29.46,NNW,344,2.0,6.0,86,0.02,,,0.42,0,weatherlink.com 1.10,2013-09-14 07:15:00,
2013-09-14 03:30:00,57.0,53.0,29.46,North,5,1.0,4.0,86,0.01,,,0.42,0,weatherlink.com 1.10,2013-09-14 07:30:00,
2013-09-14 03:45:00,56.9,53.0,29.46,NNW,340,0.0,5.0,87,0.01,,,0.42,0,weatherlink.com 1.10,2013-09-14 07:45:00,
2013-09-14 04:00:00,56.8,53.0,29.46,North,355,2.0,4.0,87,0.01,,,0.00,0,weatherlink.com 1.10,2013-09-14 08:00:00,
2013-09-14 04:15:00,56.5,53.0,29.46,NNW,343,1.0,7.0,88,0.00,,,0.00,0,weatherlink.com 1.10,2013-09-14 08:15:00,
2013-09-14 04:30:00,56.2,53.0,29.47,NNW,335,0.0,5.0,88,0.00,,,0.00,0,weatherlink.com 1.10,2013-09-14 08:30:00,
2013-09-14 04:45:00,55.7,53.0,29.47,NNW,342,1.0,5.0,89,0.01,,,0.01,0,weatherlink.com 1.10,2013-09-14 08:45:00,
2013-09-14 05:00:00,55.4,52.0,29.48,NNW,333,1.0,3.0,89,0.01,,,0.01,0,weatherlink.com 1.10,2013-09-14 09:00:00,
2013-09-14 05:15:00,55.0,52.0,29.48,NNW,333,2.0,3.0,90,0.01,,,0.01,0,weatherlink.com 1.10,2013-09-14 09:15:00,
2013-09-14 05:30:00,54.6,52.0,29.48,NW,311,0.0,3.0,90,0.01,,,0.01,0,weatherlink.com 1.10,2013-09-14 09:30:00,
2013-09-14 05:45:00,54.2,52.0,29.49,NW,311,0.0,2.0,91,0.00,,,0.01,0,weatherlink.com 1.10,2013-09-14 09:45:00,
2013-09-14 06:00:00,53.9,51.0,29.49,NW,311,0.0,2.0,91,0.00,,,0.01,0,weatherlink.com 1.10,2013-09-14 10:00:00,
2013-09-14 06:15:00,53.4,51.0,29.50,NW,311,0.0,0.0,91,0.01,,,0.02,0,weatherlink.com 1.10,2013-09-14 10:15:00,
2013-09-14 06:30:00,52.8,50.0,29.50,NW,311,0.0,0.0,91,0.01,,,0.02,0,weatherlink.com 1.10,2013-09-14 10:30:00,
2013-09-14 06:45:00,52.2,50.0,29.51,NW,311,0.0,0.0,92,0.01,,,0.02,9,weatherlink.com 1.10,2013-09-14 10:45:00,
2013-09-14 07:00:00,51.7,50.0,29.52,NW,311,0.0,0.0,92,0.01,,,0.02,14,weatherlink.com 1.10,2013-09-14 11:00:00,
2013-09-14 07:15:00,51.4,50.0,29.52,NW,311,1.0,1.0,93,0.00,,,0.02,18,weatherlink.com 1.10,2013-09-14 11:15:00,
2013-09-14 07:30:00,51.9,51.0,29.52,NNW,343,2.0,5.0,95,0.00,,,0.02,21,weatherlink.com 1.10,2013-09-14 11:30:00,
2013-09-14 07:45:00,53.0,52.0,29.53,North,355,3.0,8.0,95,0.00,,,0.02,32,weatherlink.com 1.10,2013-09-14 11:45:00,
2013-09-14 08:00:00,54.2,52.0,29.53,NNW,333,2.0,7.0,93,0.00,,,0.02,216,weatherlink.com 1.10,2013-09-14 12:00:00,
2013-09-14 08:15:00,55.8,53.0,29.54,NW,324,2.0,10.0,89,0.00,,,0.02,264,weatherlink.com 1.10,2013-09-14 12:15:00,
2013-09-14 08:30:00,57.0,53.0,29.54,SW,228,6.0,9.0,86,0.00,,,0.02,308,weatherlink.com 1.10,2013-09-14 12:30:00,
2013-09-14 08:46:00,58.2,54.0,29.54,NNW,335,4.0,10.0,86,0.00,,,0.02,352,weatherlink.com 1.10,2013-09-14 12:46:00,
2013-09-14 09:01:00,59.4,54.0,29.55,WNW,302,3.0,11.0,82,0.00,,,0.02,397,weatherlink.com 1.10,2013-09-14 13:01:00,
2013-09-14 09:16:00,60.5,54.0,29.55,NNE,22,6.0,8.0,79,0.00,,,0.02,441,weatherlink.com 1.10,2013-09-14 13:16:00,
2013-09-14 09:31:00,61.2,54.0,29.56,West,263,5.0,9.0,77,0.00,,,0.02,517,weatherlink.com 1.10,2013-09-14 13:31:00,
2013-09-14 09:46:00,62.1,54.0,29.56,West,265,2.0,9.0,76,0.01,,,0.03,429,weatherlink.com 1.10,2013-09-14 13:46:00,
2013-09-14 10:01:00,62.1,54.0,29.57,West,266,1.0,11.0,74,0.01,,,0.03,399,weatherlink.com 1.10,2013-09-14 14:01:00,
2013-09-14 10:16:00,61.9,54.0,29.57,North,5,2.0,7.0,74,0.01,,,0.03,408,weatherlink.com 1.10,2013-09-14 14:16:00,
2013-09-14 10:31:00,62.0,54.0,29.57,NW,307,2.0,7.0,76,0.01,,,0.03,204,weatherlink.com 1.10,2013-09-14 14:31:00,
2013-09-14 10:46:00,61.8,54.0,29.57,WNW,288,3.0,9.0,76,0.00,,,0.03,264,weatherlink.com 1.10,2013-09-14 14:46:00,
2013-09-14 11:01:00,61.6,54.0,29.58,SW,230,4.0,8.0,76,0.00,,,0.03,339,weatherlink.com 1.10,2013-09-14 15:01:00,
2013-09-14 11:16:00,62.0,54.0,29.57,WNW,296,2.0,10.0,76,0.00,,,0.03,396,weatherlink.com 1.10,2013-09-14 15:16:00,
2013-09-14 11:31:00,62.6,54.0,29.57,NNE,20,9.0,10.0,74,0.00,,,0.03,643,weatherlink.com 1.10,2013-09-14 15:31:00,
2013-09-14 11:46:00,63.2,53.0,29.58,WNW,300,9.0,10.0,70,0.01,,,0.04,373,weatherlink.com 1.10,2013-09-14 15:46:00,
2013-09-14 12:01:00,63.1,54.0,29.58,SSW,212,0.0,7.0,72,0.01,,,0.04,339,weatherlink.com 1.10,2013-09-14 16:01:00,
2013-09-14 12:16:00,63.6,54.0,29.58,NNE,23,6.0,8.0,72,0.01,,,0.04,371,weatherlink.com 1.10,2013-09-14 16:16:00,
2013-09-14 12:31:00,64.9,55.0,29.58,NE,41,3.0,10.0,70,0.01,,,0.04,378,weatherlink.com 1.10,2013-09-14 16:31:00,
2013-09-14 12:46:00,65.0,55.0,29.58,NW,324,4.0,11.0,71,0.00,,,0.04,424,weatherlink.com 1.10,2013-09-14 16:46:00,
2013-09-14 13:01:00,65.2,55.0,29.58,NW,321,2.0,8.0,70,0.01,,,0.05,432,weatherlink.com 1.10,2013-09-14 17:01:00,
2013-09-14 13:16:00,66.5,56.0,29.58,NNE,22,3.0,8.0,70,0.01,,,0.05,694,weatherlink.com 1.10,2013-09-14 17:16:00,
2013-09-14 13:31:00,66.3,55.0,29.58,NNW,328,8.0,9.0,66,0.01,,,0.05,339,weatherlink.com 1.10,2013-09-14 17:31:00,
2013-09-14 13:46:00,66.5,55.0,29.57,NNW,342,6.0,8.0,67,0.01,,,0.05,411,weatherlink.com 1.10,2013-09-14 17:46:00,
2013-09-14 14:01:00,68.6,55.0,29.57,ENE,67,7.0,7.0,63,0.00,,,0.05,425,weatherlink.com 1.10,2013-09-14 18:01:00,
2013-09-14 14:16:00,68.0,55.0,29.57,North,5,3.0,6.0,63,0.01,,,0.06,359,weatherlink.com 1.10,2013-09-14 18:16:00,
2013-09-14 14:31:00,67.7,55.0,29.58,NW,304,1.0,8.0,64,0.01,,,0.06,316,weatherlink.com 1.10,2013-09-14 18:31:00,
2013-09-14 14:46:00,67.6,55.0,29.58,WNW,294,3.0,6.0,64,0.01,,,0.06,278,weatherlink.com 1.10,2013-09-14 18:46:00,
2013-09-14 15:01:00,67.1,53.0,29.58,West,271,4.0,9.0,62,0.00,,,0.06,294,weatherlink.com 1.10,2013-09-14 19:01:00,
2013-09-14 15:16:00,67.2,54.0,29.58,WSW,252,4.0,11.0,63,0.00,,,0.06,654,weatherlink.com 1.10,2013-09-14 19:16:00,
2013-09-14 15:31:00,67.3,55.0,29.58,WNW,296,4.0,8.0,64,0.01,,,0.07,629,weatherlink.com 1.10,2013-09-14 19:31:00,
2013-09-14 15:46:00,67.8,54.0,29.59,West,268,3.0,9.0,61,0.01,,,0.07,536,weatherlink.com 1.10,2013-09-14 19:46:00,
2013-09-14 16:01:00,68.2,53.0,29.59,NNW,347,4.0,9.0,59,0.01,,,0.07,503,weatherlink.com 1.10,2013-09-14 20:01:00,
2013-09-14 16:16:00,68.0,53.0,29.59,WNW,291,4.0,10.0,59,0.02,,,0.08,185,weatherlink.com 1.10,2013-09-14 20:16:00,
2013-09-14 16:31:00,67.6,54.0,29.60,NW,323,6.0,10.0,62,0.01,,,0.08,411,weatherlink.com 1.10,2013-09-14 20:31:00,
2013-09-14 16:46:00,67.3,54.0,29.60,NNW,343,7.0,8.0,62,0.01,,,0.08,364,weatherlink.com 1.10,2013-09-14 20:46:00,
2013-09-14 17:02:00,67.4,53.0,29.61,WNW,290,3.0,8.0,61,0.01,,,0.08,325,weatherlink.com 1.10,2013-09-14 21:02:00,
2013-09-14 17:17:00,67.2,53.0,29.61,NNE,22,4.0,8.0,60,0.00,,,0.08,299,weatherlink.com 1.10,2013-09-14 21:17:00,
2013-09-14 17:32:00,66.4,52.0,29.62,WSW,253,2.0,6.0,61,0.00,,,0.08,69,weatherlink.com 1.10,2013-09-14 21:32:00,
2013-09-14 17:47:00,65.8,53.0,29.63,NNE,13,0.0,4.0,64,0.00,,,0.08,49,weatherlink.com 1.10,2013-09-14 21:47:00,
2013-09-14 18:02:00,65.0,54.0,29.63,North,355,1.0,2.0,68,0.00,,,0.08,44,weatherlink.com 1.10,2013-09-14 22:02:00,
2013-09-14 18:17:00,64.3,53.0,29.64,NW,321,1.0,4.0,68,0.00,,,0.08,26,weatherlink.com 1.10,2013-09-14 22:17:00,
2013-09-14 18:32:00,63.5,54.0,29.64,NNW,346,3.0,6.0,71,0.01,,,0.09,11,weatherlink.com 1.10,2013-09-14 22:32:00,
2013-09-14 18:47:00,62.7,53.0,29.65,WNW,300,3.0,7.0,71,0.01,,,0.09,5,weatherlink.com 1.10,2013-09-14 22:47:00,
2013-09-14 19:02:00,62.1,53.0,29.66,NW,316,2.0,5.0,72,0.01,,,0.09,0,weatherlink.com 1.10,2013-09-14 23:02:00,
2013-09-14 19:17:00,61.6,52.0,29.66,NNW,333,1.0,8.0,72,0.01,,,0.09,0,weatherlink.com 1.10,2013-09-14 23:17:00,
2013-09-14 19:32:00,61.3,53.0,29.67,North,355,0.0,7.0,73,0.00,,,0.09,0,weatherlink.com 1.10,2013-09-14 23:32:00,
2013-09-14 19:47:00,60.9,52.0,29.68,NW,319,3.0,6.0,73,0.00,,,0.09,0,weatherlink.com 1.10,2013-09-14 23:47:00,
2013-09-14 20:02:00,60.3,52.0,29.68,West,274,2.0,6.0,74,0.00,,,0.09,0,weatherlink.com 1.10,2013-09-15 00:02:00,
2013-09-14 20:17:00,59.7,52.0,29.68,NW,317,2.0,7.0,75,0.00,,,0.09,0,weatherlink.com 1.10,2013-09-15 00:17:00,
2013-09-14 20:32:00,59.1,52.0,29.69,NW,304,1.0,3.0,76,0.00,,,0.09,0,weatherlink.com 1.10,2013-09-15 00:32:00,
2013-09-14 20:47:00,58.4,52.0,29.69,WSW,247,2.0,6.0,78,0.00,,,0.09,0,weatherlink.com 1.10,2013-09-15 00:47:00,
2013-09-14 21:02:00,57.6,52.0,29.69,NNW,342,0.0,2.0,80,0.00,,,0.09,0,weatherlink.com 1.10,2013-09-15 01:02:00,
2013-09-14 21:17:00,56.8,51.0,29.70,NNW,342,2.0,2.0,81,0.00,,,0.09,0,weatherlink.com 1.10,2013-09-15 01:17:00,
2013-09-14 21:32:00,55.9,51.0,29.70,North,350,0.0,4.0,83,0.00,,,0.09,0,weatherlink.com 1.10,2013-09-15 01:32:00,
2013-09-14 21:47:00,55.3,51.0,29.70,North,350,0.0,3.0,85,0.00,,,0.09,0,weatherlink.com 1.10,2013-09-15 01:47:00,
2013-09-14 22:02:00,54.6,51.0,29.70,NNW,347,0.0,3.0,87,0.00,,,0.09,0,weatherlink.com 1.10,2013-09-15 02:02:00,
2013-09-14 22:17:00,54.3,51.0,29.70,WSW,245,0.0,2.0,87,0.00,,,0.09,0,weatherlink.com 1.10,2013-09-15 02:17:00,
2013-09-14 22:32:00,54.0,51.0,29.70,WSW,245,0.0,0.0,88,0.00,,,0.09,0,weatherlink.com 1.10,2013-09-15 02:32:00,
2013-09-14 22:47:00,53.4,50.0,29.71,WSW,245,0.0,1.0,89,0.00,,,0.09,0,weatherlink.com 1.10,2013-09-15 02:47:00,
2013-09-14 23:02:00,52.8,50.0,29.71,WSW,245,0.0,0.0,90,0.00,,,0.09,0,weatherlink.com 1.10,2013-09-15 03:02:00,
2013-09-14 23:17:00,52.3,50.0,29.72,WSW,246,0.0,2.0,91,0.00,,,0.09,0,weatherlink.com 1.10,2013-09-15 03:17:00,
2013-09-14 23:32:00,51.8,49.0,29.72,WSW,246,0.0,0.0,91,0.00,,,0.09,0,weatherlink.com 1.10,2013-09-15 03:32:00,
2013-09-14 23:47:00,51.2,48.0,29.72,WSW,246,0.0,0.0,90,0.00,,,0.09,0,weatherlink.com 1.10,2013-09-15 03:47:00,